Guajara-Mirim, Brazil
Current Conditions -  °F | °C
As of 7:00 PM on Monday 20 Oct 2014 (Local Time) from SLRI Reporting Station
Rain Showers Rain Showers  
Wind Chill: 84°   Ceiling: 20000
Heat Index: 91°   Visibility: 3mi
Dew Point: 73°   Wind: 0mph
Humidity: 70%   Direction: NA
Pressure: 29.8"   Gusts: NA
Location:  10.78°S, 65.34°W
Report Text: SLRI 202300Z 00000KT 5000 VCSH FU SCT017 FEW020CB BKN200 29/23 Q1009
Loading
Personal Weather Stations






























Interactive Weather Map
Tropical Storm Tracking
New forecast layout! Learn more

10-Day Weather Forecast

Advertisements
Track Severe Weather on mobile